createdAt,value
2018-09-20T00:01:28.924Z,19.20
2018-09-20T00:03:58.310Z,18.90
2018-09-20T00:06:27.654Z,18.70
2018-09-20T00:08:57.058Z,18.50
2018-09-20T00:11:26.422Z,18.40
2018-09-20T00:13:55.858Z,18.40
2018-09-20T00:16:25.232Z,18.30
2018-09-20T00:18:54.668Z,18.30
2018-09-20T00:21:24.019Z,18.20
2018-09-20T00:23:53.500Z,18.20
2018-09-20T00:26:22.851Z,18.20
2018-09-20T00:28:52.390Z,18.20
2018-09-20T00:31:21.759Z,18.30
2018-09-20T00:33:51.173Z,18.30
2018-09-20T00:36:20.545Z,18.20
2018-09-20T00:38:49.993Z,18.20
2018-09-20T00:41:19.382Z,18.20
2018-09-20T00:43:48.794Z,18.20
2018-09-20T00:46:18.170Z,18.10
2018-09-20T00:48:47.542Z,18.10
2018-09-20T00:51:16.911Z,18.10
2018-09-20T00:53:46.310Z,18.10
2018-09-20T00:56:15.686Z,18.10
2018-09-20T00:58:45.124Z,18.10
2018-09-20T01:01:14.506Z,18.10
2018-09-20T01:03:43.922Z,18.20
2018-09-20T01:06:13.302Z,18.30
2018-09-20T01:08:42.713Z,18.20
2018-09-20T01:11:12.094Z,18.20
2018-09-20T01:13:41.521Z,18.20
2018-09-20T01:16:10.894Z,18.10
2018-09-20T01:18:40.337Z,18.00
2018-09-20T01:21:09.721Z,17.80
2018-09-20T01:23:39.126Z,17.80
2018-09-20T01:26:08.491Z,17.90
2018-09-20T01:28:37.931Z,17.90
2018-09-20T01:31:07.485Z,18.00
2018-09-20T01:33:36.957Z,18.10
2018-09-20T01:36:06.307Z,18.10
2018-09-20T01:38:35.770Z,18.10
2018-09-20T01:41:05.172Z,18.20
2018-09-20T01:43:34.573Z,18.20
2018-09-20T01:46:03.963Z,18.20
2018-09-20T01:48:33.407Z,18.20
2018-09-20T01:51:02.763Z,18.20
2018-09-20T01:53:32.176Z,18.20
2018-09-20T01:56:01.527Z,18.20
2018-09-20T01:58:30.989Z,18.10
2018-09-20T02:01:00.335Z,18.10
2018-09-20T02:03:29.806Z,17.90
2018-09-20T02:05:59.163Z,17.80
2018-09-20T02:08:28.606Z,17.60
2018-09-20T02:10:57.974Z,17.60
2018-09-20T02:13:27.409Z,17.50
2018-09-20T02:15:56.750Z,17.40
2018-09-20T02:18:26.210Z,17.40
2018-09-20T02:20:55.607Z,17.50
2018-09-20T02:23:25.091Z,17.60
2018-09-20T02:25:54.454Z,17.70
2018-09-20T02:28:23.909Z,17.70
2018-09-20T02:30:53.262Z,17.80
2018-09-20T02:33:22.778Z,17.80
2018-09-20T02:35:52.093Z,17.70
2018-09-20T02:38:21.521Z,17.60
2018-09-20T02:40:50.889Z,17.60
2018-09-20T02:43:20.311Z,17.60
2018-09-20T02:45:49.674Z,17.60
2018-09-20T02:48:19.101Z,17.60
2018-09-20T02:50:48.484Z,17.60
2018-09-20T02:53:17.941Z,17.50
2018-09-20T02:55:47.318Z,17.50
2018-09-20T02:58:16.764Z,17.40
2018-09-20T03:00:46.122Z,17.40
2018-09-20T03:03:15.699Z,17.40
2018-09-20T03:05:45.414Z,17.40
2018-09-20T03:08:14.852Z,17.30
2018-09-20T03:10:44.227Z,17.20
2018-09-20T03:13:13.673Z,17.10
2018-09-20T03:15:43.058Z,17.10
2018-09-20T03:18:12.422Z,17.00
2018-09-20T03:20:41.790Z,16.90
2018-09-20T03:23:11.169Z,16.80
2018-09-20T03:25:40.538Z,16.80
2018-09-20T03:28:09.981Z,16.80
2018-09-20T03:30:39.363Z,16.80
2018-09-20T03:33:08.788Z,16.70
2018-09-20T03:35:38.159Z,16.70
2018-09-20T03:38:07.650Z,16.60
2018-09-20T03:40:37.016Z,16.50
2018-09-20T03:43:06.382Z,16.50
2018-09-20T03:45:35.750Z,16.60
2018-09-20T03:48:05.186Z,16.50
2018-09-20T03:50:34.578Z,16.50
2018-09-20T03:53:04.008Z,16.40
2018-09-20T03:55:33.371Z,16.30
2018-09-20T03:58:02.824Z,16.20
2018-09-20T04:00:32.228Z,16.30
2018-09-20T04:03:01.775Z,16.20
2018-09-20T04:05:31.148Z,16.20
2018-09-20T04:08:00.554Z,16.30
2018-09-20T04:10:29.930Z,16.20
2018-09-20T04:12:59.339Z,16.20
2018-09-20T04:15:28.698Z,16.20
2018-09-20T04:17:58.148Z,16.20
2018-09-20T04:20:28.510Z,16.20
2018-09-20T04:22:57.965Z,16.20
2018-09-20T04:25:27.347Z,16.20
2018-09-20T04:27:56.776Z,16.20
2018-09-20T04:30:26.139Z,16.10
2018-09-20T04:32:55.586Z,16.10
2018-09-20T04:35:24.958Z,16.00
2018-09-20T04:37:54.386Z,16.00
2018-09-20T04:40:23.738Z,16.00
2018-09-20T04:42:53.177Z,16.10
2018-09-20T04:45:22.579Z,16.20
2018-09-20T04:47:51.989Z,16.30
2018-09-20T04:50:21.363Z,16.40
2018-09-20T04:52:50.803Z,16.50
2018-09-20T04:55:20.164Z,16.40
2018-09-20T04:57:49.613Z,16.40
2018-09-20T05:00:18.980Z,16.40
2018-09-20T05:02:48.402Z,16.30
2018-09-20T05:05:17.956Z,16.20
2018-09-20T05:07:47.422Z,16.10
2018-09-20T05:10:16.809Z,16.10
2018-09-20T05:12:46.206Z,16.10
2018-09-20T05:15:15.575Z,16.20
2018-09-20T05:17:45.015Z,16.10
2018-09-20T05:20:14.480Z,16.20
2018-09-20T05:22:43.821Z,16.10
2018-09-20T05:25:13.190Z,16.00
2018-09-20T05:27:42.622Z,15.90
2018-09-20T05:30:12.052Z,16.00
2018-09-20T05:32:41.442Z,15.80
2018-09-20T05:35:10.830Z,15.70
2018-09-20T05:37:40.234Z,15.60
2018-09-20T05:40:09.550Z,15.60
2018-09-20T05:42:38.930Z,15.70
2018-09-20T05:45:08.261Z,15.80
2018-09-20T05:47:37.662Z,15.90
2018-09-20T05:50:07.558Z,15.90
2018-09-20T05:52:36.962Z,16.00
2018-09-20T05:55:06.371Z,16.10
2018-09-20T05:57:35.766Z,16.20
2018-09-20T06:00:06.093Z,16.30
2018-09-20T06:02:35.516Z,16.40
2018-09-20T06:05:05.154Z,16.50
2018-09-20T06:07:34.754Z,16.70
2018-09-20T06:10:04.139Z,16.70
2018-09-20T06:12:33.493Z,16.90
2018-09-20T06:15:02.867Z,17.00
2018-09-20T06:17:32.334Z,17.10
2018-09-20T06:20:01.682Z,17.20
2018-09-20T06:22:31.157Z,17.30
2018-09-20T06:25:00.507Z,17.50
2018-09-20T06:27:29.949Z,17.60
2018-09-20T06:29:59.311Z,17.70
2018-09-20T06:32:28.874Z,17.60
2018-09-20T06:34:58.268Z,17.70
2018-09-20T06:37:27.640Z,17.70
2018-09-20T06:39:57.000Z,17.90
2018-09-20T06:42:26.489Z,17.90
2018-09-20T06:44:55.826Z,18.10
2018-09-20T06:47:25.272Z,18.20
2018-09-20T06:49:54.622Z,18.30
2018-09-20T06:52:24.073Z,18.30
2018-09-20T06:54:53.427Z,18.20
2018-09-20T06:57:22.873Z,18.30
2018-09-20T06:59:52.225Z,18.30
2018-09-20T07:02:21.626Z,18.40
2018-09-20T07:04:51.097Z,18.50
2018-09-20T07:07:20.459Z,18.50
2018-09-20T07:09:49.878Z,18.70
2018-09-20T07:12:19.246Z,18.90
2018-09-20T07:14:48.619Z,19.10
2018-09-20T07:17:18.079Z,19.10
2018-09-20T07:19:47.487Z,19.10
2018-09-20T07:22:16.847Z,19.30
2018-09-20T07:24:46.296Z,19.50
2018-09-20T07:27:15.683Z,19.70
2018-09-20T07:29:45.046Z,19.80
2018-09-20T07:32:14.495Z,19.90
2018-09-20T07:34:43.860Z,20.00
2018-09-20T07:37:13.298Z,20.20
2018-09-20T07:39:42.675Z,20.30
2018-09-20T07:42:12.099Z,20.40
2018-09-20T07:45:12.492Z,20.50
2018-09-20T07:47:41.855Z,20.60
2018-09-20T07:51:08.523Z,20.70
2018-09-20T07:53:38.023Z,20.90
2018-09-20T07:56:07.351Z,21.00
2018-09-20T07:58:36.783Z,21.00
2018-09-20T08:01:06.136Z,20.90
2018-09-20T08:03:35.594Z,21.00
2018-09-20T08:06:04.950Z,21.10
2018-09-20T08:08:34.406Z,21.10
2018-09-20T08:11:03.767Z,21.10
2018-09-20T08:13:33.217Z,21.20
2018-09-20T08:16:02.584Z,21.30
2018-09-20T08:18:32.010Z,21.30
2018-09-20T08:21:01.360Z,21.30
2018-09-20T08:23:30.815Z,21.60
2018-09-20T08:26:00.370Z,21.80
2018-09-20T08:28:29.895Z,21.90
2018-09-20T08:30:59.266Z,22.00
2018-09-20T08:33:28.719Z,22.00
2018-09-20T08:35:58.085Z,22.10
2018-09-20T08:38:27.552Z,22.30
2018-09-20T08:40:56.911Z,22.50
2018-09-20T08:43:26.339Z,22.60
2018-09-20T08:45:55.759Z,22.70
2018-09-20T08:48:25.155Z,22.80
2018-09-20T08:50:54.540Z,22.90
2018-09-20T08:53:23.957Z,22.90
2018-09-20T08:55:53.333Z,23.00
2018-09-20T08:58:22.762Z,23.00
2018-09-20T09:00:52.144Z,23.00
2018-09-20T09:03:21.560Z,22.90
2018-09-20T09:05:50.911Z,22.90
2018-09-20T09:08:20.362Z,23.10
2018-09-20T09:10:49.730Z,23.20
2018-09-20T09:13:19.192Z,23.40
2018-09-20T09:15:48.572Z,23.30
2018-09-20T09:18:18.029Z,23.50
2018-09-20T09:20:47.403Z,23.50
2018-09-20T09:23:16.778Z,23.50
2018-09-20T09:25:46.143Z,23.70
2018-09-20T09:28:15.604Z,24.10
2018-09-20T09:30:44.977Z,24.00
2018-09-20T09:33:14.402Z,24.00
2018-09-20T09:35:43.772Z,24.00
2018-09-20T09:38:13.205Z,24.30
2018-09-20T09:40:42.594Z,24.40
2018-09-20T09:43:12.154Z,24.90
2018-09-20T09:45:41.515Z,25.00
2018-09-20T09:48:10.974Z,25.00
2018-09-20T09:50:40.264Z,25.00
2018-09-20T09:53:09.697Z,25.40
2018-09-20T09:55:39.054Z,25.40
2018-09-20T09:58:08.544Z,25.50
2018-09-20T10:00:39.406Z,25.50
2018-09-20T10:03:08.878Z,25.40
2018-09-20T10:05:38.307Z,25.40
2018-09-20T10:08:07.794Z,25.30
2018-09-20T10:10:37.133Z,25.40
2018-09-20T10:13:06.701Z,25.50
2018-09-20T10:15:36.120Z,25.60
2018-09-20T10:18:05.582Z,25.20
2018-09-20T10:20:34.938Z,25.60
2018-09-20T10:23:04.428Z,25.80
2018-09-20T10:25:33.776Z,25.90
2018-09-20T10:28:03.252Z,25.90
2018-09-20T10:30:32.608Z,25.70
2018-09-20T10:33:02.011Z,26.00
2018-09-20T10:35:31.363Z,26.00
2018-09-20T10:38:00.814Z,25.70
2018-09-20T10:40:30.162Z,25.90
2018-09-20T10:42:59.615Z,25.60
2018-09-20T10:45:28.962Z,26.00
2018-09-20T10:47:58.456Z,26.40
2018-09-20T10:50:27.808Z,26.30
2018-09-20T10:52:57.379Z,26.30
2018-09-20T10:55:26.838Z,25.90
2018-09-20T10:57:56.222Z,26.60
2018-09-20T11:00:25.656Z,26.70
2018-09-20T11:02:55.076Z,26.80
2018-09-20T11:05:24.464Z,26.70
2018-09-20T11:07:53.825Z,26.80
2018-09-20T11:10:23.241Z,26.50
2018-09-20T11:12:52.612Z,26.40
2018-09-20T11:15:22.056Z,26.70
2018-09-20T11:17:51.426Z,27.30
2018-09-20T11:20:20.883Z,27.70
2018-09-20T11:22:50.228Z,27.40
2018-09-20T11:25:19.575Z,27.30
2018-09-20T11:27:48.955Z,27.90
2018-09-20T11:30:18.382Z,28.00
2018-09-20T11:32:47.754Z,27.50
2018-09-20T11:35:17.123Z,27.50
2018-09-20T11:37:46.574Z,27.20
2018-09-20T11:40:15.943Z,27.30
2018-09-20T11:42:45.384Z,28.10
2018-09-20T11:45:14.755Z,28.20
2018-09-20T11:47:44.187Z,28.10
2018-09-20T11:50:13.600Z,28.70
2018-09-20T11:52:42.982Z,28.50
2018-09-20T11:55:12.334Z,28.60
2018-09-20T11:57:41.791Z,28.60
2018-09-20T12:00:11.251Z,28.80
2018-09-20T12:02:40.711Z,28.70
2018-09-20T12:05:10.099Z,28.20
2018-09-20T12:07:39.547Z,28.70
2018-09-20T12:10:08.899Z,28.50
2018-09-20T12:12:38.319Z,27.90
2018-09-20T12:15:07.694Z,28.00
2018-09-20T12:17:37.146Z,28.40
2018-09-20T12:20:06.703Z,27.80
2018-09-20T12:22:36.145Z,27.30
2018-09-20T12:25:05.526Z,27.30
2018-09-20T12:27:34.938Z,27.70
2018-09-20T12:30:04.639Z,28.30
2018-09-20T12:32:34.085Z,28.30
2018-09-20T12:35:03.468Z,28.10
2018-09-20T12:37:35.890Z,28.60
2018-09-20T12:40:06.591Z,29.00
2018-09-20T12:42:36.068Z,28.70
2018-09-20T12:45:05.591Z,28.80
2018-09-20T12:47:34.963Z,28.70
2018-09-20T12:50:04.346Z,29.20
2018-09-20T12:52:33.795Z,29.40
2018-09-20T12:55:03.160Z,29.40
2018-09-20T12:57:32.579Z,29.20
2018-09-20T13:00:01.922Z,29.20
2018-09-20T13:02:31.371Z,28.90
2018-09-20T13:05:00.702Z,29.10
2018-09-20T13:07:30.092Z,29.20
2018-09-20T13:09:59.488Z,29.20
2018-09-20T13:12:28.853Z,29.10
2018-09-20T13:14:58.300Z,29.00
2018-09-20T13:17:27.694Z,28.80
2018-09-20T13:19:57.122Z,29.30
2018-09-20T13:22:26.474Z,29.70
2018-09-20T13:24:55.899Z,30.20
2018-09-20T13:27:25.270Z,29.90
2018-09-20T13:29:54.750Z,29.60
2018-09-20T13:32:24.122Z,29.30
2018-09-20T13:34:53.526Z,29.60
2018-09-20T13:37:22.921Z,30.20
2018-09-20T13:39:52.343Z,30.20
2018-09-20T13:42:21.691Z,29.70
2018-09-20T13:44:51.135Z,29.50
2018-09-20T13:47:20.550Z,30.10
2018-09-20T13:49:49.941Z,30.30
2018-09-20T13:52:19.301Z,30.10
2018-09-20T13:54:48.718Z,31.00
2018-09-20T13:57:18.055Z,30.50
2018-09-20T13:59:47.430Z,30.90
2018-09-20T14:02:16.781Z,30.50
2018-09-20T14:04:46.247Z,30.20
2018-09-20T14:07:15.599Z,30.00
2018-09-20T14:09:45.076Z,30.20
2018-09-20T14:12:14.438Z,30.40
2018-09-20T14:14:43.878Z,30.10
2018-09-20T14:17:13.237Z,30.20
2018-09-20T14:19:42.674Z,30.30
2018-09-20T14:22:12.042Z,29.80
2018-09-20T14:24:41.394Z,30.10
2018-09-20T14:27:10.918Z,29.80
2018-09-20T14:29:40.303Z,29.70
2018-09-20T14:32:09.699Z,30.10
2018-09-20T14:34:39.111Z,30.10
2018-09-20T14:37:08.466Z,30.40
2018-09-20T14:39:38.040Z,31.00
2018-09-20T14:42:07.530Z,31.00
2018-09-20T14:44:37.020Z,30.80
2018-09-20T14:47:06.406Z,31.10
2018-09-20T14:49:35.824Z,30.90
2018-09-20T14:52:05.201Z,31.60
2018-09-20T14:54:34.602Z,31.80
2018-09-20T14:57:03.976Z,31.20
2018-09-20T14:59:33.415Z,31.10
2018-09-20T15:02:02.814Z,31.20
2018-09-20T15:04:32.223Z,31.10
2018-09-20T15:07:01.592Z,30.80
2018-09-20T15:09:31.018Z,30.00
2018-09-20T15:12:00.367Z,30.10
2018-09-20T15:14:29.832Z,30.30
2018-09-20T15:16:59.226Z,31.40
2018-09-20T15:19:28.587Z,31.40
2018-09-20T15:21:57.957Z,31.20
2018-09-20T15:24:27.313Z,30.60
2018-09-20T15:26:56.678Z,30.10
2018-09-20T15:29:26.052Z,30.00
2018-09-20T15:31:55.414Z,30.10
2018-09-20T15:34:24.850Z,30.60
2018-09-20T15:36:54.211Z,30.50
2018-09-20T15:39:23.651Z,31.10
2018-09-20T15:41:53.023Z,30.50
2018-09-20T15:44:22.476Z,30.80
2018-09-20T15:46:51.836Z,29.80
2018-09-20T15:49:21.260Z,29.80
2018-09-20T15:51:50.661Z,29.30
2018-09-20T15:54:20.071Z,29.10
2018-09-20T15:56:49.518Z,29.60
2018-09-20T15:59:18.999Z,29.60
2018-09-20T16:01:48.342Z,29.70
2018-09-20T16:04:17.822Z,29.50
2018-09-20T16:06:47.525Z,30.10
2018-09-20T16:09:16.902Z,29.50
2018-09-20T16:11:46.303Z,29.20
2018-09-20T16:14:15.681Z,29.20
2018-09-20T16:16:45.105Z,28.60
2018-09-20T16:19:14.471Z,28.10
2018-09-20T16:21:43.902Z,28.00
2018-09-20T16:24:13.393Z,27.80
2018-09-20T16:26:42.780Z,27.60
2018-09-20T16:29:49.765Z,27.40
2018-09-20T16:32:46.926Z,27.30
2018-09-20T16:35:41.565Z,27.00
2018-09-20T16:38:24.202Z,27.10
2018-09-20T16:40:55.367Z,27.00
2018-09-20T16:43:24.815Z,26.80
2018-09-20T16:45:54.195Z,26.70
2018-09-20T16:48:23.651Z,26.50
2018-09-20T16:50:53.034Z,26.30
2018-09-20T16:53:22.598Z,26.30
2018-09-20T16:55:51.815Z,26.30
2018-09-20T16:58:21.374Z,26.00
2018-09-20T17:00:50.963Z,25.80
2018-09-20T17:03:20.460Z,25.70
2018-09-20T17:05:49.813Z,25.70
2018-09-20T17:08:19.261Z,25.60
2018-09-20T17:10:48.799Z,25.50
2018-09-20T17:13:19.039Z,25.30
2018-09-20T17:15:48.564Z,25.10
2018-09-20T17:18:18.234Z,25.00
2018-09-20T17:20:47.613Z,24.80
2018-09-20T17:23:16.999Z,24.80
2018-09-20T17:25:46.374Z,24.70
2018-09-20T17:28:15.711Z,24.50
2018-09-20T17:30:45.121Z,24.40
2018-09-20T17:33:14.469Z,24.40
2018-09-20T17:35:44.384Z,24.30
2018-09-20T17:38:14.175Z,24.30
2018-09-20T17:40:45.952Z,24.20
2018-09-20T17:43:26.814Z,24.10
2018-09-20T17:45:56.205Z,23.70
2018-09-20T17:48:25.670Z,23.50
2018-09-20T17:50:55.561Z,23.30
2018-09-20T17:53:25.517Z,23.20
2018-09-20T17:55:56.814Z,23.00
2018-09-20T17:58:27.266Z,23.10
2018-09-20T18:00:56.650Z,23.00
2018-09-20T18:03:26.076Z,22.80
2018-09-20T18:05:55.497Z,22.80
2018-09-20T18:08:24.878Z,22.80
2018-09-20T18:10:54.283Z,22.90
2018-09-20T18:13:23.706Z,22.90
2018-09-20T18:15:53.107Z,22.70
2018-09-20T18:18:22.533Z,22.50
2018-09-20T18:20:51.908Z,22.40
2018-09-20T18:23:21.281Z,22.20
2018-09-20T18:25:50.655Z,22.10
2018-09-20T18:28:20.147Z,22.00
2018-09-20T18:30:49.528Z,22.00
2018-09-20T18:33:18.922Z,22.10
2018-09-20T18:35:48.276Z,22.50
2018-09-20T18:38:17.747Z,22.60
2018-09-20T18:40:47.117Z,22.40
2018-09-20T18:43:16.511Z,22.10
2018-09-20T18:45:45.870Z,22.00
2018-09-20T18:48:15.331Z,22.00
2018-09-20T18:50:44.687Z,22.20
2018-09-20T18:53:14.156Z,22.10
2018-09-20T18:55:43.528Z,22.00
2018-09-20T18:58:12.904Z,21.70
2018-09-20T19:00:42.275Z,21.50
2018-09-20T19:03:11.753Z,21.30
2018-09-20T19:05:41.110Z,21.20
2018-09-20T19:08:11.590Z,21.30
2018-09-20T19:10:40.959Z,21.30
2018-09-20T19:13:10.392Z,21.30
2018-09-20T19:15:39.751Z,21.40
2018-09-20T19:18:09.193Z,21.50
2018-09-20T19:20:38.830Z,21.50
2018-09-20T19:23:08.307Z,21.20
2018-09-20T19:25:37.679Z,21.30
2018-09-20T19:28:07.095Z,21.30
2018-09-20T19:30:36.478Z,21.30
2018-09-20T19:33:05.891Z,21.30
2018-09-20T19:35:35.260Z,21.20
2018-09-20T19:38:04.710Z,21.10
2018-09-20T19:40:34.084Z,21.10
2018-09-20T19:43:03.519Z,21.10
2018-09-20T19:45:32.933Z,21.00
2018-09-20T19:48:02.313Z,20.90
2018-09-20T19:50:31.687Z,20.90
2018-09-20T19:53:01.183Z,20.80
2018-09-20T19:55:30.544Z,20.80
2018-09-20T19:58:00.011Z,20.80
2018-09-20T20:00:29.510Z,20.70
2018-09-20T20:02:58.891Z,20.70
2018-09-20T20:05:28.277Z,20.60
2018-09-20T20:07:57.643Z,20.80
2018-09-20T20:10:27.020Z,20.90
2018-09-20T20:12:56.394Z,20.80
2018-09-20T20:15:25.755Z,20.80
2018-09-20T20:17:55.178Z,20.80
2018-09-20T20:20:24.551Z,20.70
2018-09-20T20:22:53.973Z,20.60
2018-09-20T20:25:23.352Z,20.50
2018-09-20T20:27:52.778Z,20.50
2018-09-20T20:30:22.167Z,20.50
2018-09-20T20:32:51.589Z,20.40
2018-09-20T20:35:20.951Z,20.40
2018-09-20T20:37:50.386Z,20.30
2018-09-20T20:40:19.763Z,20.30
2018-09-20T20:42:49.157Z,20.30
2018-09-20T20:45:18.539Z,20.40
2018-09-20T20:47:47.892Z,20.40
2018-09-20T20:50:17.278Z,20.30
2018-09-20T20:52:46.707Z,20.20
2018-09-20T20:55:16.109Z,20.10
2018-09-20T20:57:45.478Z,20.10
2018-09-20T21:00:14.890Z,20.20
2018-09-20T21:02:44.274Z,20.20
2018-09-20T21:05:13.691Z,20.10
2018-09-20T21:07:43.062Z,20.30
2018-09-20T21:10:12.504Z,20.50
2018-09-20T21:12:41.882Z,20.70
2018-09-20T21:15:11.302Z,20.70
2018-09-20T21:17:40.672Z,20.70
2018-09-20T21:20:10.031Z,20.70
2018-09-20T21:22:39.420Z,20.60
2018-09-20T21:25:08.773Z,20.50
2018-09-20T21:27:38.149Z,20.40
2018-09-20T21:30:07.523Z,20.30
2018-09-20T21:32:36.904Z,20.20
2018-09-20T21:35:06.349Z,20.00
2018-09-20T21:37:35.719Z,19.90
2018-09-20T21:40:05.132Z,19.80
2018-09-20T21:42:34.504Z,19.70
2018-09-20T21:45:03.941Z,19.60
2018-09-20T21:47:33.310Z,19.60
2018-09-20T21:50:02.670Z,19.50
2018-09-20T21:52:32.043Z,19.50
2018-09-20T21:55:01.450Z,19.50
2018-09-20T21:57:30.825Z,19.60
2018-09-20T22:00:00.254Z,19.60
2018-09-20T22:02:34.910Z,19.60
2018-09-20T22:05:04.253Z,19.60
2018-09-20T22:07:33.686Z,19.70
2018-09-20T22:10:03.071Z,19.80
2018-09-20T22:12:32.489Z,20.00
2018-09-20T22:15:01.857Z,20.00
2018-09-20T22:17:31.292Z,20.00
2018-09-20T22:20:00.653Z,20.00
2018-09-20T22:22:30.102Z,20.00
2018-09-20T22:24:59.469Z,19.90
2018-09-20T22:27:28.879Z,19.90
2018-09-20T22:29:58.832Z,19.90
2018-09-20T22:32:28.231Z,20.10
2018-09-20T22:34:57.652Z,20.10
2018-09-20T22:37:27.037Z,20.10
2018-09-20T22:39:56.447Z,20.10
2018-09-20T22:42:25.818Z,20.10
2018-09-20T22:44:55.303Z,20.10
2018-09-20T22:47:24.616Z,20.00
2018-09-20T22:49:54.018Z,19.90
2018-09-20T22:52:23.372Z,19.80
2018-09-20T22:54:52.753Z,19.80
2018-09-20T22:57:22.121Z,19.70
2018-09-20T22:59:51.555Z,19.70
2018-09-20T23:02:20.914Z,19.70
2018-09-20T23:04:50.346Z,19.60
2018-09-20T23:07:19.706Z,19.60
2018-09-20T23:09:49.166Z,19.60
2018-09-20T23:12:18.536Z,19.60
2018-09-20T23:14:47.997Z,19.40
2018-09-20T23:17:17.353Z,19.00
2018-09-20T23:19:46.758Z,19.00
2018-09-20T23:22:16.186Z,18.90
2018-09-20T23:24:45.569Z,18.80
2018-09-20T23:27:14.943Z,18.80
2018-09-20T23:29:44.367Z,18.90
2018-09-20T23:32:13.729Z,19.00
2018-09-20T23:34:43.179Z,19.10
2018-09-20T23:37:12.551Z,19.20
2018-09-20T23:39:41.988Z,19.20
2018-09-20T23:42:11.363Z,19.40
2018-09-20T23:44:40.832Z,19.30
2018-09-20T23:47:10.199Z,19.30
2018-09-20T23:49:39.601Z,19.40
2018-09-20T23:52:08.949Z,19.50
2018-09-20T23:54:38.406Z,19.50
2018-09-20T23:57:07.777Z,19.40
2018-09-20T23:59:37.204Z,19.30
